Terminal Aerodrome Forecast
Issued by NWS

Home | Current Version | Previous Version | Text Only | Print | Product List | Glossary On
Versions: 1 2 3 4 5 6 7 8 9 10 11 12
000
FTUS46 KPDT 162300
TAFYKM
TAF
KYKM 162337Z 1700/1724 16006KT P6SM SCT220
     FM170300 30005KT P6SM BKN200
     FM170900 27006KT P6SM FEW120 OVC180
     FM171800 VRB05KT P6SM BKN150=

USA.gov is the U.S. government's official web portal to all federal, state and local government web resources and services.